createdAt,value
2023-05-20T00:00:45.554Z,11.07
2023-05-20T00:03:12.254Z,13.38
2023-05-20T00:05:39.080Z,13.73
2023-05-20T00:08:09.284Z,12.35
2023-05-20T00:10:36.296Z,14.88
2023-05-20T00:13:03.091Z,13.77
2023-05-20T00:15:29.853Z,12.02
2023-05-20T00:17:57.211Z,14.63
2023-05-20T00:20:23.933Z,13.95
2023-05-20T00:22:50.728Z,10.95
2023-05-20T00:25:17.395Z,11.55
2023-05-20T00:27:44.306Z,13.60
2023-05-20T00:30:11.500Z,12.32
2023-05-20T00:32:38.263Z,12.25
2023-05-20T00:35:07.131Z,13.38
2023-05-20T00:37:33.775Z,13.23
2023-05-20T00:40:00.470Z,13.98
2023-05-20T00:42:28.453Z,13.60
2023-05-20T00:44:55.951Z,12.88
2023-05-20T00:47:30.945Z,15.82
2023-05-20T00:49:57.749Z,11.73
2023-05-20T00:52:25.417Z,13.32
2023-05-20T00:54:52.573Z,11.40
2023-05-20T00:57:19.915Z,10.55
2023-05-20T00:59:46.744Z,14.68
2023-05-20T01:02:13.484Z,15.07
2023-05-20T01:04:40.264Z,12.65
2023-05-20T01:07:07.362Z,9.85
2023-05-20T01:09:34.248Z,10.88
2023-05-20T01:12:09.217Z,15.55
2023-05-20T01:14:38.188Z,9.88
2023-05-20T01:17:09.661Z,14.27
2023-05-20T01:19:41.024Z,15.60
2023-05-20T01:22:09.323Z,11.40
2023-05-20T01:24:36.330Z,12.07
2023-05-20T01:27:03.341Z,8.52
2023-05-20T01:29:32.723Z,12.63
2023-05-20T01:32:00.442Z,11.23
2023-05-20T01:34:27.250Z,10.85
2023-05-20T01:36:55.798Z,9.02
2023-05-20T01:39:23.344Z,9.65
2023-05-20T01:41:50.427Z,13.50
2023-05-20T01:44:17.084Z,12.10
2023-05-20T01:46:49.410Z,13.70
2023-05-20T01:49:16.352Z,13.18
2023-05-20T01:51:44.566Z,13.23
2023-05-20T01:54:11.382Z,11.85
2023-05-20T01:56:38.071Z,10.93
2023-05-20T01:59:04.723Z,10.70
2023-05-20T02:01:31.475Z,12.13
2023-05-20T02:03:58.156Z,14.82
2023-05-20T02:06:24.932Z,11.18
2023-05-20T02:08:51.525Z,9.07
2023-05-20T02:11:18.909Z,11.45
2023-05-20T02:13:45.576Z,15.98
2023-05-20T02:16:12.332Z,10.93
2023-05-20T02:18:39.109Z,12.25
2023-05-20T02:21:05.814Z,11.07
2023-05-20T02:23:32.548Z,9.13
2023-05-20T02:25:59.365Z,8.70
2023-05-20T02:28:25.975Z,10.55
2023-05-20T02:30:52.857Z,10.52
2023-05-20T02:33:19.995Z,10.43
2023-05-20T02:35:46.677Z,11.32
2023-05-20T02:38:14.069Z,8.40
2023-05-20T02:40:45.538Z,9.88
2023-05-20T02:43:12.243Z,9.85
2023-05-20T02:45:39.036Z,10.20
2023-05-20T02:48:06.358Z,10.55
2023-05-20T02:50:33.131Z,8.40
2023-05-20T02:52:59.867Z,8.93
2023-05-20T02:55:28.288Z,11.90
2023-05-20T02:57:55.535Z,7.45
2023-05-20T03:00:23.699Z,9.35
2023-05-20T03:02:50.402Z,11.90
2023-05-20T03:05:17.114Z,9.00
2023-05-20T03:07:43.794Z,8.00
2023-05-20T03:10:10.839Z,9.75
2023-05-20T03:12:39.316Z,7.65
2023-05-20T03:15:06.713Z,10.13
2023-05-20T03:17:35.622Z,10.60
2023-05-20T03:20:03.935Z,10.13
2023-05-20T03:22:30.888Z,11.43
2023-05-20T03:24:57.524Z,10.07
2023-05-20T03:27:26.605Z,7.88
2023-05-20T03:29:54.812Z,8.50
2023-05-20T03:32:21.676Z,8.88
2023-05-20T03:34:48.357Z,7.80
2023-05-20T03:37:15.626Z,11.77
2023-05-20T03:39:42.322Z,7.90
2023-05-20T03:42:09.256Z,10.13
2023-05-20T03:44:36.146Z,11.33
2023-05-20T03:47:02.961Z,7.18
2023-05-20T03:49:30.524Z,6.93
2023-05-20T03:51:57.301Z,10.77
2023-05-20T03:54:24.037Z,8.90
2023-05-20T03:56:52.349Z,6.68
2023-05-20T03:59:19.554Z,9.18
2023-05-20T04:01:46.331Z,10.65
2023-05-20T04:04:13.080Z,9.88
2023-05-20T04:06:40.524Z,6.57
2023-05-20T04:09:07.250Z,8.02
2023-05-20T04:11:33.983Z,4.78
2023-05-20T04:14:00.721Z,7.97
2023-05-20T04:16:29.585Z,8.30
2023-05-20T04:18:56.599Z,10.32
2023-05-20T04:21:23.263Z,9.13
2023-05-20T04:23:50.127Z,6.55
2023-05-20T04:26:16.900Z,7.88
2023-05-20T04:28:43.501Z,5.80
2023-05-20T04:31:10.664Z,7.60
2023-05-20T04:33:38.698Z,5.30
2023-05-20T04:36:15.404Z,7.38
2023-05-20T04:38:44.416Z,5.47
2023-05-20T04:41:11.208Z,7.05
2023-05-20T04:43:40.201Z,6.97
2023-05-20T04:46:07.450Z,8.40
2023-05-20T04:48:34.831Z,6.88
2023-05-20T04:51:02.203Z,7.50
2023-05-20T04:53:30.643Z,6.78
2023-05-20T04:55:57.447Z,4.90
2023-05-20T04:58:25.088Z,8.00
2023-05-20T05:00:52.820Z,7.15
2023-05-20T05:03:19.792Z,6.07
2023-05-20T05:05:46.502Z,5.10
2023-05-20T05:08:14.273Z,6.22
2023-05-20T05:10:47.298Z,6.25
2023-05-20T05:13:14.157Z,8.10
2023-05-20T05:15:40.994Z,5.53
2023-05-20T05:18:07.739Z,5.70
2023-05-20T05:20:35.915Z,5.45
2023-05-20T05:23:02.617Z,3.92
2023-05-20T05:25:29.783Z,6.32
2023-05-20T05:27:59.350Z,6.05
2023-05-20T05:30:26.157Z,4.50
2023-05-20T05:32:53.127Z,4.20
2023-05-20T05:35:20.053Z,6.03
2023-05-20T05:37:46.848Z,4.35
2023-05-20T05:40:13.716Z,3.25
2023-05-20T05:42:40.489Z,6.70
2023-05-20T05:45:08.495Z,6.18
2023-05-20T05:47:36.493Z,6.47
2023-05-20T05:50:03.262Z,4.50
2023-05-20T05:52:32.974Z,5.15
2023-05-20T05:55:01.165Z,5.88
2023-05-20T05:57:28.217Z,3.42
2023-05-20T05:59:54.924Z,3.05
2023-05-20T06:02:22.980Z,5.25
2023-05-20T06:04:49.800Z,4.85
2023-05-20T06:07:17.327Z,3.53
2023-05-20T06:09:44.044Z,3.33
2023-05-20T06:12:13.273Z,3.10
2023-05-20T06:14:40.716Z,2.58
2023-05-20T06:17:07.705Z,4.68
2023-05-20T06:19:34.889Z,6.15
2023-05-20T06:22:01.640Z,3.80
2023-05-20T06:24:28.512Z,4.15
2023-05-20T06:26:55.307Z,3.17
2023-05-20T06:29:22.029Z,3.50
2023-05-20T06:31:48.675Z,4.25
2023-05-20T06:34:15.323Z,4.57
2023-05-20T06:36:42.006Z,5.68
2023-05-20T06:39:12.440Z,4.63
2023-05-20T06:41:41.146Z,3.15
2023-05-20T06:44:09.958Z,2.72
2023-05-20T06:47:14.197Z,6.22
2023-05-20T06:49:42.922Z,4.28
2023-05-20T06:52:11.100Z,7.28
2023-05-20T06:54:41.309Z,4.10
2023-05-20T06:57:10.570Z,5.82
2023-05-20T06:59:37.406Z,5.50
2023-05-20T07:02:06.321Z,6.53
2023-05-20T07:04:33.205Z,5.57
2023-05-20T07:06:59.888Z,2.72
2023-05-20T07:09:26.585Z,5.50
2023-05-20T07:11:53.297Z,4.15
2023-05-20T07:14:20.113Z,4.70
2023-05-20T07:16:47.704Z,5.68
2023-05-20T07:19:14.614Z,3.88
2023-05-20T07:21:41.340Z,3.20
2023-05-20T07:24:26.584Z,4.63
2023-05-20T07:26:53.311Z,4.28
2023-05-20T07:29:20.285Z,5.63
2023-05-20T07:31:47.099Z,2.95
2023-05-20T07:34:13.814Z,3.45
2023-05-20T07:36:40.936Z,6.65
2023-05-20T07:39:14.163Z,3.80
2023-05-20T07:41:42.275Z,8.77
2023-05-20T07:44:09.100Z,4.90
2023-05-20T07:46:39.182Z,6.72
2023-05-20T07:49:06.794Z,7.00
2023-05-20T07:51:34.349Z,8.77
2023-05-20T07:54:01.179Z,4.90
2023-05-20T07:56:28.474Z,4.50
2023-05-20T07:58:59.844Z,4.90
2023-05-20T08:01:30.799Z,5.30
2023-05-20T08:03:58.078Z,7.32
2023-05-20T08:06:27.292Z,3.45
2023-05-20T08:08:56.081Z,4.88
2023-05-20T08:11:28.606Z,5.88
2023-05-20T08:13:56.227Z,6.63
2023-05-20T08:16:24.910Z,7.43
2023-05-20T08:18:51.636Z,2.90
2023-05-20T08:21:21.722Z,4.60
2023-05-20T08:23:48.412Z,7.05
2023-05-20T08:26:15.096Z,7.00
2023-05-20T08:28:42.815Z,5.43
2023-05-20T08:31:09.979Z,3.90
2023-05-20T08:33:36.880Z,4.32
2023-05-20T08:36:03.888Z,5.38
2023-05-20T08:38:30.642Z,4.78
2023-05-20T08:40:57.891Z,4.30
2023-05-20T08:43:25.833Z,5.68
2023-05-20T08:45:52.845Z,7.93
2023-05-20T08:48:23.595Z,5.78
2023-05-20T08:50:51.168Z,6.88
2023-05-20T08:53:19.064Z,3.97
2023-05-20T08:56:01.439Z,5.53
2023-05-20T08:58:29.780Z,3.22
2023-05-20T09:00:56.485Z,6.07
2023-05-20T09:03:24.426Z,3.88
2023-05-20T09:05:52.489Z,4.35
2023-05-20T09:08:20.403Z,3.92
2023-05-20T09:10:47.018Z,4.28
2023-05-20T09:13:13.608Z,4.22
2023-05-20T09:15:41.385Z,4.13
2023-05-20T09:18:08.374Z,8.10
2023-05-20T09:20:41.297Z,8.40
2023-05-20T09:23:09.873Z,5.15
2023-05-20T09:25:37.403Z,3.45
2023-05-20T09:28:10.258Z,5.82
2023-05-20T09:30:36.917Z,5.07
2023-05-20T09:33:05.152Z,3.15
2023-05-20T09:35:37.069Z,5.20
2023-05-20T09:38:05.182Z,9.68
2023-05-20T09:40:31.817Z,3.47
2023-05-20T09:43:08.267Z,4.50
2023-05-20T09:45:35.458Z,5.72
2023-05-20T09:48:03.192Z,5.72
2023-05-20T09:50:30.632Z,5.75
2023-05-20T09:52:57.309Z,5.35
2023-05-20T09:55:24.991Z,4.45
2023-05-20T09:57:54.289Z,3.00
2023-05-20T10:00:21.732Z,7.20
2023-05-20T10:02:51.483Z,5.45
2023-05-20T10:05:21.158Z,6.05
2023-05-20T10:07:59.710Z,3.63
2023-05-20T10:10:34.181Z,4.13
2023-05-20T10:13:17.074Z,3.63
2023-05-20T10:16:05.853Z,4.90
2023-05-20T10:18:54.569Z,5.40
2023-05-20T10:21:26.786Z,6.65
2023-05-20T10:23:53.624Z,3.17
2023-05-20T10:26:21.871Z,2.83
2023-05-20T10:28:49.126Z,8.02
2023-05-20T10:31:23.614Z,3.58
2023-05-20T10:33:52.974Z,3.83
2023-05-20T10:36:31.463Z,5.72
2023-05-20T10:38:59.818Z,4.03
2023-05-20T10:41:30.622Z,3.75
2023-05-20T10:44:05.429Z,4.28
2023-05-20T10:46:48.186Z,4.07
2023-05-20T10:49:22.308Z,3.28
2023-05-20T10:51:51.626Z,4.80
2023-05-20T10:54:18.336Z,2.67
2023-05-20T10:56:52.696Z,4.40
2023-05-20T10:59:19.831Z,4.45
2023-05-20T11:01:46.546Z,4.20
2023-05-20T11:04:14.690Z,9.45
2023-05-20T11:06:50.534Z,5.60
2023-05-20T11:09:17.219Z,4.90
2023-05-20T11:11:43.928Z,4.30
2023-05-20T11:14:14.770Z,3.15
2023-05-20T11:16:42.251Z,6.20
2023-05-20T11:19:09.801Z,4.38
2023-05-20T11:21:43.481Z,4.72
2023-05-20T11:24:10.159Z,5.57
2023-05-20T11:26:37.074Z,5.50
2023-05-20T11:29:03.771Z,2.38
2023-05-20T11:31:32.027Z,5.25
2023-05-20T11:34:02.426Z,3.85
2023-05-20T11:36:30.390Z,2.92
2023-05-20T11:38:58.521Z,5.30
2023-05-20T11:41:26.146Z,2.63
2023-05-20T11:44:00.292Z,4.63
2023-05-20T11:46:28.132Z,4.72
2023-05-20T11:48:55.122Z,5.85
2023-05-20T11:51:28.137Z,3.85
2023-05-20T11:54:05.026Z,6.18
2023-05-20T11:56:33.544Z,6.07
2023-05-20T11:59:01.131Z,2.67
2023-05-20T12:01:30.900Z,6.55
2023-05-20T12:03:57.790Z,3.63
2023-05-20T12:06:24.553Z,5.25
2023-05-20T12:08:51.253Z,4.43
2023-05-20T12:11:18.171Z,4.70
2023-05-20T12:13:44.837Z,4.13
2023-05-20T12:16:11.473Z,5.30
2023-05-20T12:18:38.153Z,3.80
2023-05-20T12:21:04.833Z,1.73
2023-05-20T12:23:34.061Z,5.15
2023-05-20T12:26:01.164Z,4.57
2023-05-20T12:28:27.957Z,3.97
2023-05-20T12:30:54.647Z,5.13
2023-05-20T12:33:21.287Z,4.10
2023-05-20T12:35:47.907Z,4.97
2023-05-20T12:38:14.695Z,3.80
2023-05-20T12:40:41.312Z,3.45
2023-05-20T12:43:08.030Z,4.72
2023-05-20T12:45:34.673Z,5.15
2023-05-20T12:48:01.812Z,4.60
2023-05-20T12:50:28.498Z,3.53
2023-05-20T12:52:55.470Z,4.68
2023-05-20T12:55:22.520Z,6.65
2023-05-20T12:57:50.074Z,2.97
2023-05-20T13:00:17.215Z,5.13
2023-05-20T13:02:44.274Z,3.35
2023-05-20T13:05:11.391Z,5.15
2023-05-20T13:07:38.077Z,3.30
2023-05-20T13:10:05.619Z,2.53
2023-05-20T13:12:32.354Z,4.55
2023-05-20T13:14:59.037Z,1.88
2023-05-20T13:17:25.752Z,3.10
2023-05-20T13:19:52.446Z,4.22
2023-05-20T13:22:19.500Z,4.47
2023-05-20T13:24:46.431Z,5.22
2023-05-20T13:27:13.117Z,5.35
2023-05-20T13:29:39.838Z,3.33
2023-05-20T13:32:06.645Z,2.67
2023-05-20T13:34:33.600Z,4.47
2023-05-20T13:37:00.277Z,3.47
2023-05-20T13:39:27.207Z,4.97
2023-05-20T13:41:55.031Z,3.85
2023-05-20T13:44:21.856Z,3.22
2023-05-20T13:46:48.482Z,3.70
2023-05-20T13:49:15.257Z,4.35
2023-05-20T13:51:41.907Z,6.57
2023-05-20T13:54:08.548Z,4.13
2023-05-20T13:56:35.247Z,4.57
2023-05-20T13:59:01.845Z,3.80
2023-05-20T14:01:30.627Z,3.22
2023-05-20T14:03:57.401Z,5.43
2023-05-20T14:06:24.847Z,4.03
2023-05-20T14:08:54.314Z,6.20
2023-05-20T14:11:21.732Z,2.72
2023-05-20T14:13:48.534Z,3.72
2023-05-20T14:16:15.298Z,4.05
2023-05-20T14:18:42.081Z,5.85
2023-05-20T14:21:08.767Z,2.80
2023-05-20T14:23:35.400Z,5.28
2023-05-20T14:26:02.010Z,3.42
2023-05-20T14:28:28.619Z,2.85
2023-05-20T14:30:55.212Z,2.53
2023-05-20T14:33:21.849Z,4.38
2023-05-20T14:35:48.448Z,5.28
2023-05-20T14:38:15.124Z,4.10
2023-05-20T14:40:41.777Z,2.90
2023-05-20T14:43:08.447Z,3.35
2023-05-20T14:45:35.104Z,5.03
2023-05-20T14:48:01.821Z,5.22
2023-05-20T14:50:28.564Z,3.35
2023-05-20T14:52:55.282Z,6.10
2023-05-20T14:55:21.937Z,4.35
2023-05-20T14:57:48.778Z,3.90
2023-05-20T15:00:15.545Z,4.93
2023-05-20T15:02:42.247Z,5.65
2023-05-20T15:05:11.865Z,5.47
2023-05-20T15:07:38.756Z,3.78
2023-05-20T15:10:05.838Z,15.60
2023-05-20T15:12:32.597Z,6.57
2023-05-20T15:14:59.232Z,6.85
2023-05-20T15:17:26.561Z,4.82
2023-05-20T15:19:53.226Z,5.15
2023-05-20T15:22:19.869Z,4.38
2023-05-20T15:24:46.523Z,9.10
2023-05-20T15:27:13.180Z,4.22
2023-05-20T15:29:40.915Z,4.35
2023-05-20T15:32:07.869Z,5.32
2023-05-20T15:34:34.524Z,4.40
2023-05-20T15:37:01.179Z,7.03
2023-05-20T15:39:28.456Z,2.65
2023-05-20T15:41:56.180Z,5.20
2023-05-20T15:44:22.848Z,8.27
2023-05-20T15:46:49.616Z,4.38
2023-05-20T15:49:16.369Z,5.57
2023-05-20T15:51:52.240Z,2.88
2023-05-20T15:54:28.910Z,5.13
2023-05-20T15:56:55.693Z,5.93
2023-05-20T15:59:22.443Z,3.92
2023-05-20T16:01:49.148Z,5.63
2023-05-20T16:04:15.914Z,4.50
2023-05-20T16:06:42.725Z,3.92
2023-05-20T16:09:09.358Z,7.20
2023-05-20T16:11:36.387Z,7.00
2023-05-20T16:14:03.140Z,3.42
2023-05-20T16:16:29.829Z,3.20
2023-05-20T16:18:56.552Z,3.53
2023-05-20T16:21:25.010Z,6.38
2023-05-20T16:23:52.876Z,5.32
2023-05-20T16:26:19.595Z,3.58
2023-05-20T16:28:47.134Z,3.45
2023-05-20T16:31:13.970Z,4.57
2023-05-20T16:33:40.948Z,4.10
2023-05-20T16:36:07.650Z,4.95
2023-05-20T16:38:34.650Z,6.45
2023-05-20T16:41:01.902Z,3.65
2023-05-20T16:43:28.680Z,5.90
2023-05-20T16:45:55.404Z,4.53
2023-05-20T16:48:22.246Z,4.88
2023-05-20T16:50:48.949Z,2.55
2023-05-20T16:53:16.616Z,5.25
2023-05-20T16:55:43.406Z,6.78
2023-05-20T16:58:10.268Z,6.50
2023-05-20T17:00:36.961Z,3.15
2023-05-20T17:03:04.059Z,7.22
2023-05-20T17:05:30.721Z,2.38
2023-05-20T17:08:00.084Z,3.65
2023-05-20T17:10:28.562Z,7.43
2023-05-20T17:12:55.450Z,4.60
2023-05-20T17:15:23.459Z,4.50
2023-05-20T17:17:50.581Z,3.90
2023-05-20T17:20:17.561Z,3.97
2023-05-20T17:22:44.347Z,3.78
2023-05-20T17:25:11.262Z,3.25
2023-05-20T17:27:38.038Z,6.38
2023-05-20T17:30:05.594Z,2.92
2023-05-20T17:32:32.358Z,2.92
2023-05-20T17:34:59.047Z,6.70
2023-05-20T17:37:26.039Z,2.38
2023-05-20T17:39:52.690Z,2.92
2023-05-20T17:42:19.374Z,5.20
2023-05-20T17:44:46.027Z,4.43
2023-05-20T17:47:12.737Z,4.15
2023-05-20T17:49:39.395Z,2.65
2023-05-20T17:52:06.422Z,4.00
2023-05-20T17:54:33.117Z,4.78
2023-05-20T17:56:59.771Z,3.65
2023-05-20T17:59:26.497Z,8.32
2023-05-20T18:01:53.182Z,4.40
2023-05-20T18:04:21.362Z,4.13
2023-05-20T18:06:48.037Z,6.95
2023-05-20T18:09:14.650Z,4.15
2023-05-20T18:11:41.389Z,4.78
2023-05-20T18:14:08.020Z,2.40
2023-05-20T18:16:35.135Z,5.05
2023-05-20T18:19:02.963Z,4.70
2023-05-20T18:21:29.790Z,7.55
2023-05-20T18:23:56.477Z,2.92
2023-05-20T18:26:23.192Z,5.18
2023-05-20T18:28:52.779Z,4.43
2023-05-20T18:31:19.404Z,3.80
2023-05-20T18:33:46.064Z,4.22
2023-05-20T18:36:13.072Z,4.75
2023-05-20T18:38:41.483Z,5.30
2023-05-20T18:41:08.759Z,2.95
2023-05-20T18:43:35.635Z,3.13
2023-05-20T18:46:02.447Z,4.50
2023-05-20T18:48:29.191Z,4.45
2023-05-20T18:50:56.472Z,3.10
2023-05-20T18:53:23.622Z,6.35
2023-05-20T18:55:51.507Z,10.57
2023-05-20T18:58:18.127Z,4.50
2023-05-20T19:00:44.757Z,4.75
2023-05-20T19:03:11.574Z,6.40
2023-05-20T19:05:38.739Z,3.85
2023-05-20T19:08:05.992Z,3.50
2023-05-20T19:10:32.936Z,3.80
2023-05-20T19:12:59.773Z,7.07
2023-05-20T19:15:26.656Z,6.70
2023-05-20T19:17:53.452Z,5.75
2023-05-20T19:20:20.268Z,4.80
2023-05-20T19:22:47.247Z,3.03
2023-05-20T19:25:14.019Z,3.78
2023-05-20T19:27:40.764Z,5.75
2023-05-20T19:30:10.537Z,3.28
2023-05-20T19:32:38.176Z,5.15
2023-05-20T19:35:06.082Z,7.18
2023-05-20T19:37:33.032Z,5.43
2023-05-20T19:39:59.676Z,7.13
2023-05-20T19:42:26.380Z,5.43
2023-05-20T19:44:53.877Z,6.32
2023-05-20T19:47:21.381Z,3.50
2023-05-20T19:49:48.334Z,2.65
2023-05-20T19:52:15.191Z,3.53
2023-05-20T19:54:42.970Z,4.15
2023-05-20T19:57:09.880Z,3.65
2023-05-20T19:59:38.049Z,4.20
2023-05-20T20:02:06.088Z,5.63
2023-05-20T20:04:32.910Z,5.28
2023-05-20T20:06:59.977Z,4.20
2023-05-20T20:09:27.463Z,5.90
2023-05-20T20:11:54.330Z,5.75
2023-05-20T20:14:21.584Z,9.32
2023-05-20T20:16:48.957Z,4.75
2023-05-20T20:19:22.980Z,3.47
2023-05-20T20:21:52.278Z,6.55
2023-05-20T20:24:19.532Z,3.90
2023-05-20T20:26:49.465Z,5.78
2023-05-20T20:29:16.291Z,2.42
2023-05-20T20:31:42.943Z,9.73
2023-05-20T20:34:09.649Z,5.15
2023-05-20T20:36:36.279Z,4.80
2023-05-20T20:39:05.113Z,5.40
2023-05-20T20:41:32.769Z,6.00
2023-05-20T20:43:59.917Z,3.45
2023-05-20T20:46:29.284Z,4.13
2023-05-20T20:48:56.214Z,4.88
2023-05-20T20:51:22.970Z,4.50
2023-05-20T20:53:49.916Z,6.53
2023-05-20T20:56:17.512Z,4.07
2023-05-20T20:58:44.974Z,6.18
2023-05-20T21:01:12.157Z,3.45
2023-05-20T21:03:40.241Z,6.40
2023-05-20T21:06:08.019Z,4.03
2023-05-20T21:08:34.884Z,6.43
2023-05-20T21:11:01.844Z,6.18
2023-05-20T21:13:29.991Z,6.13
2023-05-20T21:15:57.032Z,4.18
2023-05-20T21:18:24.026Z,4.68
2023-05-20T21:20:54.788Z,6.30
2023-05-20T21:23:22.057Z,6.05
2023-05-20T21:25:49.145Z,4.55
2023-05-20T21:28:16.300Z,6.00
2023-05-20T21:30:43.127Z,6.53
2023-05-20T21:33:09.873Z,6.75
2023-05-20T21:35:36.795Z,4.53
2023-05-20T21:38:03.650Z,9.40
2023-05-20T21:40:30.266Z,6.75
2023-05-20T21:42:56.873Z,6.47
2023-05-20T21:45:23.559Z,6.28
2023-05-20T21:47:50.254Z,4.10
2023-05-20T21:50:16.917Z,6.18
2023-05-20T21:52:43.571Z,6.60
2023-05-20T21:55:10.661Z,6.22
2023-05-20T21:57:37.549Z,9.65
2023-05-20T22:00:14.241Z,4.90
2023-05-20T22:02:41.544Z,8.35
2023-05-20T22:05:08.638Z,4.28
2023-05-20T22:07:35.357Z,4.72
2023-05-20T22:10:02.387Z,5.63
2023-05-20T22:12:29.286Z,4.60
2023-05-20T22:14:56.184Z,5.50
2023-05-20T22:17:24.046Z,5.72
2023-05-20T22:19:50.748Z,6.82
2023-05-20T22:22:17.445Z,6.13
2023-05-20T22:24:44.093Z,5.50
2023-05-20T22:27:10.771Z,6.03
2023-05-20T22:29:37.431Z,5.15
2023-05-20T22:32:04.391Z,8.75
2023-05-20T22:34:31.183Z,6.30
2023-05-20T22:36:58.221Z,7.40
2023-05-20T22:39:24.957Z,7.47
2023-05-20T22:41:51.663Z,6.55
2023-05-20T22:44:18.338Z,6.80
2023-05-20T22:46:44.953Z,7.65
2023-05-20T22:49:12.827Z,6.10
2023-05-20T22:51:39.531Z,5.72
2023-05-20T22:54:06.977Z,5.60
2023-05-20T22:56:34.263Z,5.28
2023-05-20T22:59:01.208Z,6.53
2023-05-20T23:01:28.032Z,6.88
2023-05-20T23:03:55.101Z,7.20
2023-05-20T23:06:22.758Z,7.18
2023-05-20T23:08:49.602Z,5.38
2023-05-20T23:11:16.530Z,7.13
2023-05-20T23:13:43.220Z,7.10
2023-05-20T23:16:10.338Z,5.65
2023-05-20T23:18:37.132Z,11.25
2023-05-20T23:21:04.202Z,5.30
2023-05-20T23:23:32.182Z,6.47
2023-05-20T23:25:59.584Z,8.20
2023-05-20T23:28:26.396Z,5.55
2023-05-20T23:30:53.145Z,6.63
2023-05-20T23:33:24.611Z,6.30
2023-05-20T23:35:52.330Z,9.88
2023-05-20T23:38:19.071Z,5.90
2023-05-20T23:40:45.733Z,5.13
2023-05-20T23:43:12.423Z,8.02
2023-05-20T23:45:39.032Z,5.10
2023-05-20T23:48:06.188Z,8.50
2023-05-20T23:50:32.950Z,5.68
2023-05-20T23:52:59.709Z,4.68
2023-05-20T23:55:28.399Z,7.35
2023-05-20T23:57:55.223Z,4.30
